sensor_id;sensor_type;location;lat;lon;timestamp;pressure;altitude;pressure_sealevel;temperature
59339;BMP280;45117;50.960;5.500;2023-06-26T00:04:04;100412.94;;;22.72
59339;BMP280;45117;50.960;5.500;2023-06-26T00:06:31;100418.22;;;22.76
59339;BMP280;45117;50.960;5.500;2023-06-26T00:08:58;100423.22;;;22.83
59339;BMP280;45117;50.960;5.500;2023-06-26T00:11:28;100402.00;;;22.72
59339;BMP280;45117;50.960;5.500;2023-06-26T00:13:58;100420.72;;;22.79
59339;BMP280;45117;50.960;5.500;2023-06-26T00:16:25;100448.63;;;23.00
59339;BMP280;45117;50.960;5.500;2023-06-26T00:18:52;100430.91;;;22.79
59339;BMP280;45117;50.960;5.500;2023-06-26T00:21:20;100466.31;;;22.99
59339;BMP280;45117;50.960;5.500;2023-06-26T00:23:50;100428.13;;;22.68
59339;BMP280;45117;50.960;5.500;2023-06-26T00:26:17;100467.81;;;22.94
59339;BMP280;45117;50.960;5.500;2023-06-26T00:28:43;100437.59;;;22.67
59339;BMP280;45117;50.960;5.500;2023-06-26T00:31:19;100435.81;;;22.69
59339;BMP280;45117;50.960;5.500;2023-06-26T00:33:46;100436.88;;;22.72
59339;BMP280;45117;50.960;5.500;2023-06-26T00:36:13;100392.16;;;22.38
59339;BMP280;45117;50.960;5.500;2023-06-26T00:38:42;100424.84;;;22.58
59339;BMP280;45117;50.960;5.500;2023-06-26T00:41:09;100418.56;;;22.41
59339;BMP280;45117;50.960;5.500;2023-06-26T00:43:38;100400.31;;;22.21
59339;BMP280;45117;50.960;5.500;2023-06-26T00:46:08;100425.97;;;22.35
59339;BMP280;45117;50.960;5.500;2023-06-26T00:48:35;100409.44;;;22.12
59339;BMP280;45117;50.960;5.500;2023-06-26T00:51:06;100412.91;;;22.07
59339;BMP280;45117;50.960;5.500;2023-06-26T00:53:35;100450.81;;;22.31
59339;BMP280;45117;50.960;5.500;2023-06-26T00:56:04;100435.13;;;22.20
59339;BMP280;45117;50.960;5.500;2023-06-26T00:58:31;100415.34;;;22.00
59339;BMP280;45117;50.960;5.500;2023-06-26T01:00:58;100425.88;;;22.12
59339;BMP280;45117;50.960;5.500;2023-06-26T01:03:26;100424.59;;;22.08
59339;BMP280;45117;50.960;5.500;2023-06-26T01:05:54;100447.56;;;22.21
59339;BMP280;45117;50.960;5.500;2023-06-26T01:08:23;100402.28;;;21.78
59339;BMP280;45117;50.960;5.500;2023-06-26T01:10:50;100451.41;;;21.98
59339;BMP280;45117;50.960;5.500;2023-06-26T01:13:19;100469.50;;;21.95
59339;BMP280;45117;50.960;5.500;2023-06-26T01:15:46;100439.72;;;21.72
59339;BMP280;45117;50.960;5.500;2023-06-26T01:18:13;100462.56;;;21.69
59339;BMP280;45117;50.960;5.500;2023-06-26T01:20:41;100470.84;;;21.74
59339;BMP280;45117;50.960;5.500;2023-06-26T01:23:28;100481.47;;;21.72
59339;BMP280;45117;50.960;5.500;2023-06-26T01:26:13;100442.19;;;21.38
59339;BMP280;45117;50.960;5.500;2023-06-26T01:28:41;100421.09;;;21.18
59339;BMP280;45117;50.960;5.500;2023-06-26T01:31:10;100467.03;;;21.40
59339;BMP280;45117;50.960;5.500;2023-06-26T01:33:38;100456.56;;;21.39
59339;BMP280;45117;50.960;5.500;2023-06-26T01:36:05;100406.53;;;21.01
59339;BMP280;45117;50.960;5.500;2023-06-26T01:38:32;100419.00;;;21.08
59339;BMP280;45117;50.960;5.500;2023-06-26T01:41:02;100481.81;;;21.54
59339;BMP280;45117;50.960;5.500;2023-06-26T01:43:41;100464.50;;;21.37
59339;BMP280;45117;50.960;5.500;2023-06-26T01:46:11;100446.94;;;21.17
59339;BMP280;45117;50.960;5.500;2023-06-26T01:48:49;100486.91;;;21.41
59339;BMP280;45117;50.960;5.500;2023-06-26T01:51:17;100490.00;;;21.28
59339;BMP280;45117;50.960;5.500;2023-06-26T01:53:50;100490.75;;;21.28
59339;BMP280;45117;50.960;5.500;2023-06-26T01:56:21;100479.97;;;21.19
59339;BMP280;45117;50.960;5.500;2023-06-26T01:58:51;100498.88;;;21.23
59339;BMP280;45117;50.960;5.500;2023-06-26T02:01:20;100500.03;;;21.16
59339;BMP280;45117;50.960;5.500;2023-06-26T02:03:47;100492.81;;;21.13
59339;BMP280;45117;50.960;5.500;2023-06-26T02:06:15;100493.75;;;21.10
59339;BMP280;45117;50.960;5.500;2023-06-26T02:08:42;100517.38;;;21.13
59339;BMP280;45117;50.960;5.500;2023-06-26T02:11:08;100516.84;;;21.09
59339;BMP280;45117;50.960;5.500;2023-06-26T02:13:35;100482.22;;;20.80
59339;BMP280;45117;50.960;5.500;2023-06-26T02:16:03;100513.69;;;20.96
59339;BMP280;45117;50.960;5.500;2023-06-26T02:18:30;100520.78;;;21.08
59339;BMP280;45117;50.960;5.500;2023-06-26T02:21:04;100468.31;;;20.78
59339;BMP280;45117;50.960;5.500;2023-06-26T02:23:30;100465.63;;;20.63
59339;BMP280;45117;50.960;5.500;2023-06-26T02:25:57;100505.16;;;20.88
59339;BMP280;45117;50.960;5.500;2023-06-26T02:28:24;100521.06;;;20.90
59339;BMP280;45117;50.960;5.500;2023-06-26T02:30:53;100478.66;;;20.54
59339;BMP280;45117;50.960;5.500;2023-06-26T02:33:21;100522.13;;;20.78
59339;BMP280;45117;50.960;5.500;2023-06-26T02:35:51;100486.53;;;20.52
59339;BMP280;45117;50.960;5.500;2023-06-26T02:38:18;100512.28;;;20.65
59339;BMP280;45117;50.960;5.500;2023-06-26T02:40:44;100481.88;;;20.38
59339;BMP280;45117;50.960;5.500;2023-06-26T02:43:11;100527.00;;;20.68
59339;BMP280;45117;50.960;5.500;2023-06-26T02:45:38;100495.72;;;20.34
59339;BMP280;45117;50.960;5.500;2023-06-26T02:48:10;100479.94;;;20.23
59339;BMP280;45117;50.960;5.500;2023-06-26T02:50:38;100496.56;;;20.25
59339;BMP280;45117;50.960;5.500;2023-06-26T02:53:04;100537.91;;;20.53
59339;BMP280;45117;50.960;5.500;2023-06-26T02:55:33;100512.75;;;20.29
59339;BMP280;45117;50.960;5.500;2023-06-26T02:58:00;100477.03;;;19.97
59339;BMP280;45117;50.960;5.500;2023-06-26T03:00:26;100539.72;;;20.42
59339;BMP280;45117;50.960;5.500;2023-06-26T03:02:55;100542.63;;;20.38
59339;BMP280;45117;50.960;5.500;2023-06-26T03:05:22;100527.28;;;20.26
59339;BMP280;45117;50.960;5.500;2023-06-26T03:07:51;100516.88;;;20.24
59339;BMP280;45117;50.960;5.500;2023-06-26T03:10:17;100545.84;;;20.37
59339;BMP280;45117;50.960;5.500;2023-06-26T03:12:44;100513.94;;;20.13
59339;BMP280;45117;50.960;5.500;2023-06-26T03:15:11;100556.84;;;20.27
59339;BMP280;45117;50.960;5.500;2023-06-26T03:17:37;100536.59;;;20.05
59339;BMP280;45117;50.960;5.500;2023-06-26T03:20:05;100557.69;;;20.19
59339;BMP280;45117;50.960;5.500;2023-06-26T03:22:32;100519.78;;;19.91
59339;BMP280;45117;50.960;5.500;2023-06-26T03:25:03;100569.03;;;20.17
59339;BMP280;45117;50.960;5.500;2023-06-26T03:27:31;100571.97;;;20.14
59339;BMP280;45117;50.960;5.500;2023-06-26T03:29:57;100565.03;;;19.98
59339;BMP280;45117;50.960;5.500;2023-06-26T03:32:25;100513.72;;;19.58
59339;BMP280;45117;50.960;5.500;2023-06-26T03:34:51;100584.09;;;19.98
59339;BMP280;45117;50.960;5.500;2023-06-26T03:37:19;100571.31;;;19.89
59339;BMP280;45117;50.960;5.500;2023-06-26T03:39:46;100543.19;;;19.68
59339;BMP280;45117;50.960;5.500;2023-06-26T03:42:14;100557.06;;;19.71
59339;BMP280;45117;50.960;5.500;2023-06-26T03:44:44;100572.88;;;19.81
59339;BMP280;45117;50.960;5.500;2023-06-26T03:47:11;100590.38;;;19.89
59339;BMP280;45117;50.960;5.500;2023-06-26T03:49:38;100579.91;;;19.73
59339;BMP280;45117;50.960;5.500;2023-06-26T03:52:05;100594.13;;;19.77
59339;BMP280;45117;50.960;5.500;2023-06-26T03:54:32;100594.56;;;19.76
59339;BMP280;45117;50.960;5.500;2023-06-26T03:56:59;100606.09;;;19.71
59339;BMP280;45117;50.960;5.500;2023-06-26T03:59:31;100591.25;;;19.72
59339;BMP280;45117;50.960;5.500;2023-06-26T04:01:57;100598.81;;;19.77
59339;BMP280;45117;50.960;5.500;2023-06-26T04:04:26;100604.44;;;19.73
59339;BMP280;45117;50.960;5.500;2023-06-26T04:06:53;100586.84;;;19.59
59339;BMP280;45117;50.960;5.500;2023-06-26T04:09:20;100616.81;;;19.74
59339;BMP280;45117;50.960;5.500;2023-06-26T04:11:46;100535.78;;;19.21
59339;BMP280;45117;50.960;5.500;2023-06-26T04:14:13;100608.66;;;19.74
59339;BMP280;45117;50.960;5.500;2023-06-26T04:16:41;100607.22;;;19.64
59339;BMP280;45117;50.960;5.500;2023-06-26T04:19:08;100565.44;;;19.43
59339;BMP280;45117;50.960;5.500;2023-06-26T04:21:35;100608.81;;;19.71
59339;BMP280;45117;50.960;5.500;2023-06-26T04:24:05;100623.59;;;19.79
59339;BMP280;45117;50.960;5.500;2023-06-26T04:26:32;100621.00;;;19.84
59339;BMP280;45117;50.960;5.500;2023-06-26T04:28:59;100556.59;;;19.33
59339;BMP280;45117;50.960;5.500;2023-06-26T04:31:26;100621.56;;;19.88
59339;BMP280;45117;50.960;5.500;2023-06-26T04:34:21;100620.38;;;20.04
59339;BMP280;45117;50.960;5.500;2023-06-26T04:36:48;100584.84;;;19.98
59339;BMP280;45117;50.960;5.500;2023-06-26T04:39:16;100641.41;;;20.57
59339;BMP280;45117;50.960;5.500;2023-06-26T04:41:44;100621.09;;;21.69
59339;BMP280;45117;50.960;5.500;2023-06-26T04:44:11;100591.84;;;22.01
59339;BMP280;45117;50.960;5.500;2023-06-26T04:46:39;100634.22;;;22.11
59339;BMP280;45117;50.960;5.500;2023-06-26T04:49:06;100628.31;;;21.11
59339;BMP280;45117;50.960;5.500;2023-06-26T04:51:39;100593.97;;;20.54
59339;BMP280;45117;50.960;5.500;2023-06-26T04:54:09;100653.22;;;20.98
59339;BMP280;45117;50.960;5.500;2023-06-26T04:56:36;100660.25;;;21.05
59339;BMP280;45117;50.960;5.500;2023-06-26T04:59:05;100650.81;;;21.06
59339;BMP280;45117;50.960;5.500;2023-06-26T05:01:32;100657.81;;;21.42
59339;BMP280;45117;50.960;5.500;2023-06-26T05:03:59;100654.00;;;21.39
59339;BMP280;45117;50.960;5.500;2023-06-26T05:06:25;100643.97;;;21.51
59339;BMP280;45117;50.960;5.500;2023-06-26T05:08:53;100608.56;;;21.56
59339;BMP280;45117;50.960;5.500;2023-06-26T05:11:20;100622.84;;;21.92
59339;BMP280;45117;50.960;5.500;2023-06-26T05:13:47;100590.19;;;21.37
59339;BMP280;45117;50.960;5.500;2023-06-26T05:16:14;100595.03;;;21.93
59339;BMP280;45117;50.960;5.500;2023-06-26T05:18:42;100673.31;;;23.65
59339;BMP280;45117;50.960;5.500;2023-06-26T05:21:10;100664.25;;;23.37
59339;BMP280;45117;50.960;5.500;2023-06-26T05:23:37;100671.41;;;22.49
59339;BMP280;45117;50.960;5.500;2023-06-26T05:26:05;100686.13;;;24.02
59339;BMP280;45117;50.960;5.500;2023-06-26T05:28:32;100664.63;;;23.18
59339;BMP280;45117;50.960;5.500;2023-06-26T05:31:01;100681.91;;;24.17
59339;BMP280;45117;50.960;5.500;2023-06-26T05:33:30;100689.09;;;26.33
59339;BMP280;45117;50.960;5.500;2023-06-26T05:35:58;100679.81;;;26.36
59339;BMP280;45117;50.960;5.500;2023-06-26T05:38:26;100674.41;;;26.25
59339;BMP280;45117;50.960;5.500;2023-06-26T05:40:53;100679.00;;;27.52
59339;BMP280;45117;50.960;5.500;2023-06-26T05:43:22;100681.03;;;27.70
59339;BMP280;45117;50.960;5.500;2023-06-26T05:45:49;100670.78;;;28.42
59339;BMP280;45117;50.960;5.500;2023-06-26T05:48:16;100684.38;;;27.25
59339;BMP280;45117;50.960;5.500;2023-06-26T05:50:46;100665.53;;;27.80
59339;BMP280;45117;50.960;5.500;2023-06-26T05:53:15;100672.72;;;28.60
59339;BMP280;45117;50.960;5.500;2023-06-26T05:55:42;100682.63;;;28.10
59339;BMP280;45117;50.960;5.500;2023-06-26T05:58:10;100696.31;;;28.03
59339;BMP280;45117;50.960;5.500;2023-06-26T06:00:40;100702.06;;;26.92
59339;BMP280;45117;50.960;5.500;2023-06-26T06:03:09;100677.03;;;27.84
59339;BMP280;45117;50.960;5.500;2023-06-26T06:05:36;100721.00;;;26.23
59339;BMP280;45117;50.960;5.500;2023-06-26T06:08:03;100731.44;;;25.94
59339;BMP280;45117;50.960;5.500;2023-06-26T06:10:30;100731.47;;;25.42
59339;BMP280;45117;50.960;5.500;2023-06-26T06:12:56;100698.16;;;24.43
59339;BMP280;45117;50.960;5.500;2023-06-26T06:15:23;100742.56;;;24.36
59339;BMP280;45117;50.960;5.500;2023-06-26T06:17:51;100730.38;;;24.65
59339;BMP280;45117;50.960;5.500;2023-06-26T06:20:18;100748.81;;;26.19
59339;BMP280;45117;50.960;5.500;2023-06-26T06:22:45;100693.03;;;25.78
59339;BMP280;45117;50.960;5.500;2023-06-26T06:25:13;100733.47;;;26.59
59339;BMP280;45117;50.960;5.500;2023-06-26T06:27:41;100695.66;;;26.60
59339;BMP280;45117;50.960;5.500;2023-06-26T06:30:09;100752.88;;;26.48
59339;BMP280;45117;50.960;5.500;2023-06-26T06:32:36;100767.25;;;27.14
59339;BMP280;45117;50.960;5.500;2023-06-26T06:35:04;100766.69;;;25.96
59339;BMP280;45117;50.960;5.500;2023-06-26T06:37:35;100757.41;;;25.52
59339;BMP280;45117;50.960;5.500;2023-06-26T06:40:02;100779.31;;;25.86
59339;BMP280;45117;50.960;5.500;2023-06-26T06:42:29;100732.94;;;25.54
59339;BMP280;45117;50.960;5.500;2023-06-26T06:44:56;100733.91;;;25.57
59339;BMP280;45117;50.960;5.500;2023-06-26T06:47:23;100703.97;;;25.83
59339;BMP280;45117;50.960;5.500;2023-06-26T06:49:49;100718.72;;;25.39
59339;BMP280;45117;50.960;5.500;2023-06-26T06:52:20;100771.66;;;26.44
59339;BMP280;45117;50.960;5.500;2023-06-26T06:54:54;100770.25;;;26.62
59339;BMP280;45117;50.960;5.500;2023-06-26T06:57:21;100716.06;;;25.75
59339;BMP280;45117;50.960;5.500;2023-06-26T06:59:48;100751.81;;;25.75
59339;BMP280;45117;50.960;5.500;2023-06-26T07:04:41;100791.81;;;26.63
59339;BMP280;45117;50.960;5.500;2023-06-26T07:07:08;100792.97;;;26.44
59339;BMP280;45117;50.960;5.500;2023-06-26T07:09:36;100720.09;;;26.69
59339;BMP280;45117;50.960;5.500;2023-06-26T07:12:03;100790.63;;;25.65
59339;BMP280;45117;50.960;5.500;2023-06-26T07:14:30;100806.13;;;26.21
59339;BMP280;45117;50.960;5.500;2023-06-26T07:16:57;100786.44;;;25.48
59339;BMP280;45117;50.960;5.500;2023-06-26T07:19:23;100761.25;;;25.38
59339;BMP280;45117;50.960;5.500;2023-06-26T07:21:50;100815.91;;;26.87
59339;BMP280;45117;50.960;5.500;2023-06-26T07:24:16;100775.53;;;25.89
59339;BMP280;45117;50.960;5.500;2023-06-26T07:26:45;100823.03;;;26.00
59339;BMP280;45117;50.960;5.500;2023-06-26T07:29:11;100820.84;;;26.34
59339;BMP280;45117;50.960;5.500;2023-06-26T07:31:38;100832.91;;;25.68
59339;BMP280;45117;50.960;5.500;2023-06-26T07:34:04;100841.31;;;26.39
59339;BMP280;45117;50.960;5.500;2023-06-26T07:36:31;100826.56;;;25.90
59339;BMP280;45117;50.960;5.500;2023-06-26T07:38:58;100808.75;;;25.96
59339;BMP280;45117;50.960;5.500;2023-06-26T07:41:24;100845.69;;;25.60
59339;BMP280;45117;50.960;5.500;2023-06-26T07:43:52;100838.13;;;25.66
59339;BMP280;45117;50.960;5.500;2023-06-26T07:46:19;100837.97;;;27.36
59339;BMP280;45117;50.960;5.500;2023-06-26T07:48:46;100839.44;;;27.18
59339;BMP280;45117;50.960;5.500;2023-06-26T07:51:12;100836.22;;;27.38
59339;BMP280;45117;50.960;5.500;2023-06-26T07:53:41;100820.06;;;25.87
59339;BMP280;45117;50.960;5.500;2023-06-26T07:56:08;100816.81;;;25.83
59339;BMP280;45117;50.960;5.500;2023-06-26T07:58:37;100791.53;;;24.99
59339;BMP280;45117;50.960;5.500;2023-06-26T08:01:05;100870.09;;;26.79
59339;BMP280;45117;50.960;5.500;2023-06-26T08:03:32;100837.41;;;25.60
59339;BMP280;45117;50.960;5.500;2023-06-26T08:05:59;100853.81;;;25.93
59339;BMP280;45117;50.960;5.500;2023-06-26T08:08:26;100817.09;;;25.85
59339;BMP280;45117;50.960;5.500;2023-06-26T08:10:53;100823.34;;;25.86
59339;BMP280;45117;50.960;5.500;2023-06-26T08:13:21;100860.50;;;25.34
59339;BMP280;45117;50.960;5.500;2023-06-26T08:15:48;100820.22;;;25.43
59339;BMP280;45117;50.960;5.500;2023-06-26T08:18:17;100840.75;;;25.19
59339;BMP280;45117;50.960;5.500;2023-06-26T08:20:44;100851.47;;;25.40
59339;BMP280;45117;50.960;5.500;2023-06-26T08:23:11;100852.41;;;25.76
59339;BMP280;45117;50.960;5.500;2023-06-26T08:25:38;100833.75;;;25.01
59339;BMP280;45117;50.960;5.500;2023-06-26T08:28:07;100860.72;;;26.88
59339;BMP280;45117;50.960;5.500;2023-06-26T08:30:36;100867.25;;;26.90
59339;BMP280;45117;50.960;5.500;2023-06-26T08:33:02;100858.59;;;26.81
59339;BMP280;45117;50.960;5.500;2023-06-26T08:35:33;100798.06;;;26.64
59339;BMP280;45117;50.960;5.500;2023-06-26T08:38:09;100814.91;;;26.55
59339;BMP280;45117;50.960;5.500;2023-06-26T08:40:38;100830.75;;;26.49
59339;BMP280;45117;50.960;5.500;2023-06-26T08:43:06;100859.16;;;26.98
59339;BMP280;45117;50.960;5.500;2023-06-26T08:45:33;100843.59;;;26.70
59339;BMP280;45117;50.960;5.500;2023-06-26T08:48:01;100851.38;;;27.51
59339;BMP280;45117;50.960;5.500;2023-06-26T08:50:34;100855.69;;;27.89
59339;BMP280;45117;50.960;5.500;2023-06-26T08:53:09;100834.13;;;26.96
59339;BMP280;45117;50.960;5.500;2023-06-26T08:55:42;100875.41;;;27.31
59339;BMP280;45117;50.960;5.500;2023-06-26T08:58:09;100874.25;;;28.07
59339;BMP280;45117;50.960;5.500;2023-06-26T09:00:38;100808.06;;;27.64
59339;BMP280;45117;50.960;5.500;2023-06-26T09:03:05;100846.34;;;27.92
59339;BMP280;45117;50.960;5.500;2023-06-26T09:05:34;100860.78;;;27.61
59339;BMP280;45117;50.960;5.500;2023-06-26T09:08:01;100883.53;;;26.94
59339;BMP280;45117;50.960;5.500;2023-06-26T09:10:28;100886.63;;;27.39
59339;BMP280;45117;50.960;5.500;2023-06-26T09:12:55;100887.56;;;28.59
59339;BMP280;45117;50.960;5.500;2023-06-26T09:15:22;100889.78;;;28.10
59339;BMP280;45117;50.960;5.500;2023-06-26T09:17:56;100839.66;;;28.06
59339;BMP280;45117;50.960;5.500;2023-06-26T09:20:23;100885.81;;;27.87
59339;BMP280;45117;50.960;5.500;2023-06-26T09:22:51;100890.38;;;28.22
59339;BMP280;45117;50.960;5.500;2023-06-26T09:25:20;100886.94;;;28.85
59339;BMP280;45117;50.960;5.500;2023-06-26T09:27:48;100877.69;;;28.32
59339;BMP280;45117;50.960;5.500;2023-06-26T09:30:17;100814.72;;;28.44
59339;BMP280;45117;50.960;5.500;2023-06-26T09:32:47;100900.75;;;28.99
59339;BMP280;45117;50.960;5.500;2023-06-26T09:35:16;100895.91;;;29.18
59339;BMP280;45117;50.960;5.500;2023-06-26T09:37:43;100881.41;;;28.99
59339;BMP280;45117;50.960;5.500;2023-06-26T09:40:11;100895.91;;;29.18
59339;BMP280;45117;50.960;5.500;2023-06-26T09:42:38;100916.22;;;29.20
59339;BMP280;45117;50.960;5.500;2023-06-26T09:45:05;100917.00;;;29.47
59339;BMP280;45117;50.960;5.500;2023-06-26T09:47:34;100917.47;;;29.85
59339;BMP280;45117;50.960;5.500;2023-06-26T09:50:02;100911.00;;;29.17
59339;BMP280;45117;50.960;5.500;2023-06-26T09:52:31;100919.63;;;29.79
59339;BMP280;45117;50.960;5.500;2023-06-26T09:55:11;100921.41;;;30.03
59339;BMP280;45117;50.960;5.500;2023-06-26T09:57:38;100924.56;;;28.56
59339;BMP280;45117;50.960;5.500;2023-06-26T10:00:06;100927.88;;;27.74
59339;BMP280;45117;50.960;5.500;2023-06-26T10:02:34;100931.53;;;27.64
59339;BMP280;45117;50.960;5.500;2023-06-26T10:05:01;100920.31;;;27.32
59339;BMP280;45117;50.960;5.500;2023-06-26T10:07:28;100886.19;;;26.34
59339;BMP280;45117;50.960;5.500;2023-06-26T10:09:55;100876.28;;;26.09
59339;BMP280;45117;50.960;5.500;2023-06-26T10:12:27;100908.34;;;26.94
59339;BMP280;45117;50.960;5.500;2023-06-26T10:14:57;100900.91;;;28.24
59339;BMP280;45117;50.960;5.500;2023-06-26T10:17:28;100915.41;;;26.84
59339;BMP280;45117;50.960;5.500;2023-06-26T10:20:00;100912.34;;;28.52
59339;BMP280;45117;50.960;5.500;2023-06-26T10:22:29;100909.81;;;26.59
59339;BMP280;45117;50.960;5.500;2023-06-26T10:25:00;100921.38;;;26.05
59339;BMP280;45117;50.960;5.500;2023-06-26T10:27:33;100942.31;;;26.72
59339;BMP280;45117;50.960;5.500;2023-06-26T10:30:04;100922.34;;;27.99
59339;BMP280;45117;50.960;5.500;2023-06-26T10:32:33;100882.88;;;27.85
59339;BMP280;45117;50.960;5.500;2023-06-26T10:34:59;100890.16;;;28.20
59339;BMP280;45117;50.960;5.500;2023-06-26T10:37:47;100929.63;;;29.03
59339;BMP280;45117;50.960;5.500;2023-06-26T10:40:21;100903.22;;;28.38
59339;BMP280;45117;50.960;5.500;2023-06-26T10:42:49;100900.00;;;27.97
59339;BMP280;45117;50.960;5.500;2023-06-26T10:45:17;100909.53;;;27.77
59339;BMP280;45117;50.960;5.500;2023-06-26T10:47:46;100950.84;;;26.68
59339;BMP280;45117;50.960;5.500;2023-06-26T10:50:18;100940.63;;;28.20
59339;BMP280;45117;50.960;5.500;2023-06-26T10:53:07;100928.44;;;27.67
59339;BMP280;45117;50.960;5.500;2023-06-26T10:55:34;100909.09;;;27.73
59339;BMP280;45117;50.960;5.500;2023-06-26T11:01:22;100955.56;;;27.15
59339;BMP280;45117;50.960;5.500;2023-06-26T11:04:00;100951.19;;;26.95
59339;BMP280;45117;50.960;5.500;2023-06-26T11:06:28;100948.41;;;26.95
59339;BMP280;45117;50.960;5.500;2023-06-26T11:09:00;100919.72;;;27.09
59339;BMP280;45117;50.960;5.500;2023-06-26T11:11:55;100955.84;;;28.08
59339;BMP280;45117;50.960;5.500;2023-06-26T11:14:25;100942.88;;;28.91
59339;BMP280;45117;50.960;5.500;2023-06-26T11:16:55;100949.38;;;28.94
59339;BMP280;45117;50.960;5.500;2023-06-26T11:19:22;100891.84;;;28.61
59339;BMP280;45117;50.960;5.500;2023-06-26T11:21:49;100931.09;;;28.03
59339;BMP280;45117;50.960;5.500;2023-06-26T11:24:17;100914.25;;;27.82
59339;BMP280;45117;50.960;5.500;2023-06-26T11:26:45;100938.41;;;29.02
59339;BMP280;45117;50.960;5.500;2023-06-26T11:29:13;100950.94;;;27.77
59339;BMP280;45117;50.960;5.500;2023-06-26T11:31:41;100954.81;;;27.44
59339;BMP280;45117;50.960;5.500;2023-06-26T11:34:10;100947.91;;;27.80
59339;BMP280;45117;50.960;5.500;2023-06-26T11:36:38;100971.69;;;27.59
59339;BMP280;45117;50.960;5.500;2023-06-26T11:39:05;100969.53;;;27.76
59339;BMP280;45117;50.960;5.500;2023-06-26T11:41:34;100978.81;;;27.79
59339;BMP280;45117;50.960;5.500;2023-06-26T11:44:01;100944.66;;;27.28
59339;BMP280;45117;50.960;5.500;2023-06-26T11:46:28;100980.41;;;26.73
59339;BMP280;45117;50.960;5.500;2023-06-26T11:48:55;100988.50;;;26.49
59339;BMP280;45117;50.960;5.500;2023-06-26T11:51:23;100949.16;;;25.91
59339;BMP280;45117;50.960;5.500;2023-06-26T11:53:50;100985.97;;;25.82
59339;BMP280;45117;50.960;5.500;2023-06-26T11:56:18;100998.00;;;25.68
59339;BMP280;45117;50.960;5.500;2023-06-26T11:59:00;101012.50;;;26.65
59339;BMP280;45117;50.960;5.500;2023-06-26T12:01:33;101017.56;;;27.38
59339;BMP280;45117;50.960;5.500;2023-06-26T12:04:01;101004.91;;;27.78
59339;BMP280;45117;50.960;5.500;2023-06-26T12:06:31;101000.34;;;28.48
59339;BMP280;45117;50.960;5.500;2023-06-26T12:08:59;101029.97;;;27.80
59339;BMP280;45117;50.960;5.500;2023-06-26T12:11:27;101007.81;;;26.96
59339;BMP280;45117;50.960;5.500;2023-06-26T12:13:56;101013.81;;;26.53
59339;BMP280;45117;50.960;5.500;2023-06-26T12:16:23;101011.19;;;26.03
59339;BMP280;45117;50.960;5.500;2023-06-26T12:18:50;100977.94;;;25.95
59339;BMP280;45117;50.960;5.500;2023-06-26T12:21:47;101010.69;;;27.50
59339;BMP280;45117;50.960;5.500;2023-06-26T12:24:15;100996.16;;;28.60
59339;BMP280;45117;50.960;5.500;2023-06-26T12:26:42;101005.34;;;28.31
59339;BMP280;45117;50.960;5.500;2023-06-26T12:29:11;101000.09;;;28.46
59339;BMP280;45117;50.960;5.500;2023-06-26T12:31:40;100999.66;;;28.42
59339;BMP280;45117;50.960;5.500;2023-06-26T12:34:09;101003.00;;;28.53
59339;BMP280;45117;50.960;5.500;2023-06-26T12:36:39;100969.19;;;28.29
59339;BMP280;45117;50.960;5.500;2023-06-26T12:39:09;101004.97;;;27.72
59339;BMP280;45117;50.960;5.500;2023-06-26T12:41:44;100992.56;;;26.48
59339;BMP280;45117;50.960;5.500;2023-06-26T12:44:17;101023.97;;;26.00
59339;BMP280;45117;50.960;5.500;2023-06-26T12:46:48;101029.47;;;26.81
59339;BMP280;45117;50.960;5.500;2023-06-26T12:49:15;101034.56;;;28.20
59339;BMP280;45117;50.960;5.500;2023-06-26T12:51:43;101035.19;;;28.51
59339;BMP280;45117;50.960;5.500;2023-06-26T12:54:11;100999.31;;;27.83
59339;BMP280;45117;50.960;5.500;2023-06-26T12:56:37;101026.53;;;27.08
59339;BMP280;45117;50.960;5.500;2023-06-26T12:59:04;100979.28;;;26.41
59339;BMP280;45117;50.960;5.500;2023-06-26T13:01:31;101013.84;;;26.48
59339;BMP280;45117;50.960;5.500;2023-06-26T13:03:58;100977.94;;;25.95
59339;BMP280;45117;50.960;5.500;2023-06-26T13:06:27;101027.03;;;27.42
59339;BMP280;45117;50.960;5.500;2023-06-26T13:08:54;101009.59;;;27.34
59339;BMP280;45117;50.960;5.500;2023-06-26T13:11:22;100971.50;;;27.27
59339;BMP280;45117;50.960;5.500;2023-06-26T13:13:49;101021.19;;;27.81
59339;BMP280;45117;50.960;5.500;2023-06-26T13:16:16;101022.03;;;27.95
59339;BMP280;45117;50.960;5.500;2023-06-26T13:18:44;101030.13;;;26.92
59339;BMP280;45117;50.960;5.500;2023-06-26T13:21:10;101002.66;;;26.75
59339;BMP280;45117;50.960;5.500;2023-06-26T13:23:46;101016.25;;;27.44
59339;BMP280;45117;50.960;5.500;2023-06-26T13:26:13;101014.56;;;27.00
59339;BMP280;45117;50.960;5.500;2023-06-26T13:28:41;100999.00;;;26.56
59339;BMP280;45117;50.960;5.500;2023-06-26T13:31:07;101018.41;;;26.86
59339;BMP280;45117;50.960;5.500;2023-06-26T13:33:34;101001.66;;;26.84
59339;BMP280;45117;50.960;5.500;2023-06-26T13:36:01;101023.69;;;27.25
59339;BMP280;45117;50.960;5.500;2023-06-26T13:38:30;101000.50;;;27.39
59339;BMP280;45117;50.960;5.500;2023-06-26T13:40:56;101015.41;;;27.79
59339;BMP280;45117;50.960;5.500;2023-06-26T13:43:24;101016.34;;;27.88
59339;BMP280;45117;50.960;5.500;2023-06-26T13:45:52;101035.34;;;27.97
59339;BMP280;45117;50.960;5.500;2023-06-26T13:48:19;101034.22;;;27.57
59339;BMP280;45117;50.960;5.500;2023-06-26T13:50:46;101046.69;;;27.33
59339;BMP280;45117;50.960;5.500;2023-06-26T13:53:13;101026.59;;;27.38
59339;BMP280;45117;50.960;5.500;2023-06-26T13:55:41;101036.16;;;27.62
59339;BMP280;45117;50.960;5.500;2023-06-26T13:58:08;101016.00;;;27.48
59339;BMP280;45117;50.960;5.500;2023-06-26T14:00:35;101026.44;;;27.25
59339;BMP280;45117;50.960;5.500;2023-06-26T14:03:04;101027.78;;;26.66
59339;BMP280;45117;50.960;5.500;2023-06-26T14:05:37;101006.81;;;27.34
59339;BMP280;45117;50.960;5.500;2023-06-26T14:08:06;100995.06;;;26.52
59339;BMP280;45117;50.960;5.500;2023-06-26T14:10:33;101015.59;;;26.45
59339;BMP280;45117;50.960;5.500;2023-06-26T14:13:00;101007.84;;;26.38